sensor_id;sensor_type;location;lat;lon;timestamp;P1;durP1;ratioP1;P2;durP2;ratioP2
76155;SDS011;64906;51.290;7.348;2023-02-28T00:00:11;69.53;;;42.67;;
76155;SDS011;64906;51.290;7.348;2023-02-28T00:02:38;68.97;;;43.47;;
76155;SDS011;64906;51.290;7.348;2023-02-28T00:05:06;70.72;;;43.20;;
76155;SDS011;64906;51.290;7.348;2023-02-28T00:07:34;72.93;;;44.83;;
76155;SDS011;64906;51.290;7.348;2023-02-28T00:10:00;71.30;;;42.63;;
76155;SDS011;64906;51.290;7.348;2023-02-28T00:12:27;68.65;;;42.95;;
76155;SDS011;64906;51.290;7.348;2023-02-28T00:14:52;69.47;;;42.28;;
76155;SDS011;64906;51.290;7.348;2023-02-28T00:17:19;65.82;;;41.60;;
76155;SDS011;64906;51.290;7.348;2023-02-28T00:19:51;70.05;;;42.63;;
76155;SDS011;64906;51.290;7.348;2023-02-28T00:22:17;71.38;;;42.05;;
76155;SDS011;64906;51.290;7.348;2023-02-28T00:24:45;69.10;;;42.67;;
76155;SDS011;64906;51.290;7.348;2023-02-28T00:27:11;65.93;;;41.72;;
76155;SDS011;64906;51.290;7.348;2023-02-28T00:29:37;76.13;;;47.20;;
76155;SDS011;64906;51.290;7.348;2023-02-28T00:32:03;68.10;;;41.53;;
76155;SDS011;64906;51.290;7.348;2023-02-28T00:34:29;68.50;;;42.15;;
76155;SDS011;64906;51.290;7.348;2023-02-28T00:36:55;68.95;;;41.35;;
76155;SDS011;64906;51.290;7.348;2023-02-28T00:39:21;65.40;;;41.95;;
76155;SDS011;64906;51.290;7.348;2023-02-28T00:41:47;68.47;;;40.92;;
76155;SDS011;64906;51.290;7.348;2023-02-28T00:44:13;64.10;;;40.63;;
76155;SDS011;64906;51.290;7.348;2023-02-28T00:46:39;64.88;;;40.70;;
76155;SDS011;64906;51.290;7.348;2023-02-28T00:49:05;66.30;;;40.78;;
76155;SDS011;64906;51.290;7.348;2023-02-28T00:51:31;68.63;;;41.15;;
76155;SDS011;64906;51.290;7.348;2023-02-28T00:53:56;67.88;;;39.88;;
76155;SDS011;64906;51.290;7.348;2023-02-28T00:56:22;64.10;;;40.78;;
76155;SDS011;64906;51.290;7.348;2023-02-28T00:58:54;66.75;;;40.40;;
76155;SDS011;64906;51.290;7.348;2023-02-28T01:01:20;60.40;;;37.97;;
76155;SDS011;64906;51.290;7.348;2023-02-28T01:03:46;65.10;;;39.63;;
76155;SDS011;64906;51.290;7.348;2023-02-28T01:06:11;65.28;;;39.20;;
76155;SDS011;64906;51.290;7.348;2023-02-28T01:08:37;64.38;;;40.03;;
76155;SDS011;64906;51.290;7.348;2023-02-28T01:11:07;62.80;;;39.65;;
76155;SDS011;64906;51.290;7.348;2023-02-28T01:13:35;62.08;;;38.97;;
76155;SDS011;64906;51.290;7.348;2023-02-28T01:16:01;64.55;;;38.92;;
76155;SDS011;64906;51.290;7.348;2023-02-28T01:18:28;58.35;;;39.05;;
76155;SDS011;64906;51.290;7.348;2023-02-28T01:20:54;58.25;;;39.05;;
76155;SDS011;64906;51.290;7.348;2023-02-28T01:23:20;62.17;;;39.75;;
76155;SDS011;64906;51.290;7.348;2023-02-28T01:25:49;61.90;;;39.80;;
76155;SDS011;64906;51.290;7.348;2023-02-28T01:28:16;63.80;;;39.05;;
76155;SDS011;64906;51.290;7.348;2023-02-28T01:30:47;64.38;;;39.55;;
76155;SDS011;64906;51.290;7.348;2023-02-28T01:33:16;61.15;;;39.30;;
76155;SDS011;64906;51.290;7.348;2023-02-28T01:35:42;58.58;;;38.35;;
76155;SDS011;64906;51.290;7.348;2023-02-28T01:38:08;60.35;;;42.47;;
76155;SDS011;64906;51.290;7.348;2023-02-28T01:40:35;59.28;;;36.55;;
76155;SDS011;64906;51.290;7.348;2023-02-28T01:43:01;61.60;;;37.63;;
76155;SDS011;64906;51.290;7.348;2023-02-28T01:45:27;58.00;;;38.45;;
76155;SDS011;64906;51.290;7.348;2023-02-28T01:48:00;62.90;;;38.72;;
76155;SDS011;64906;51.290;7.348;2023-02-28T01:50:32;61.55;;;38.38;;
76155;SDS011;64906;51.290;7.348;2023-02-28T01:53:03;60.08;;;37.88;;
76155;SDS011;64906;51.290;7.348;2023-02-28T01:55:32;61.78;;;39.42;;
76155;SDS011;64906;51.290;7.348;2023-02-28T01:58:00;55.17;;;36.42;;
76155;SDS011;64906;51.290;7.348;2023-02-28T02:00:30;59.08;;;38.47;;
76155;SDS011;64906;51.290;7.348;2023-02-28T02:02:57;57.65;;;36.78;;
76155;SDS011;64906;51.290;7.348;2023-02-28T02:05:27;58.05;;;37.97;;
76155;SDS011;64906;51.290;7.348;2023-02-28T02:07:57;59.40;;;37.20;;
76155;SDS011;64906;51.290;7.348;2023-02-28T02:10:32;57.55;;;35.88;;
76155;SDS011;64906;51.290;7.348;2023-02-28T02:18:43;60.05;;;35.85;;
76155;SDS011;64906;51.290;7.348;2023-02-28T02:21:23;59.95;;;35.53;;
76155;SDS011;64906;51.290;7.348;2023-02-28T02:38:13;58.22;;;36.22;;
76155;SDS011;64906;51.290;7.348;2023-02-28T02:43:36;55.00;;;35.53;;
76155;SDS011;64906;51.290;7.348;2023-02-28T02:46:20;52.33;;;34.72;;
76155;SDS011;64906;51.290;7.348;2023-02-28T02:48:50;56.28;;;35.80;;
76155;SDS011;64906;51.290;7.348;2023-02-28T02:51:20;55.00;;;35.00;;
76155;SDS011;64906;51.290;7.348;2023-02-28T02:53:52;54.65;;;34.38;;
76155;SDS011;64906;51.290;7.348;2023-02-28T02:56:23;56.35;;;36.30;;
76155;SDS011;64906;51.290;7.348;2023-02-28T02:58:53;53.60;;;34.70;;
76155;SDS011;64906;51.290;7.348;2023-02-28T03:01:25;54.97;;;35.05;;
76155;SDS011;64906;51.290;7.348;2023-02-28T03:03:57;53.65;;;33.75;;
76155;SDS011;64906;51.290;7.348;2023-02-28T03:06:26;54.30;;;35.38;;
76155;SDS011;64906;51.290;7.348;2023-02-28T03:08:52;57.72;;;35.15;;
76155;SDS011;64906;51.290;7.348;2023-02-28T03:11:18;55.03;;;34.95;;
76155;SDS011;64906;51.290;7.348;2023-02-28T03:13:54;53.20;;;34.17;;
76155;SDS011;64906;51.290;7.348;2023-02-28T03:24:54;52.80;;;34.30;;
76155;SDS011;64906;51.290;7.348;2023-02-28T03:28:24;52.00;;;33.67;;
76155;SDS011;64906;51.290;7.348;2023-02-28T03:33:21;52.80;;;33.50;;
76155;SDS011;64906;51.290;7.348;2023-02-28T03:35:54;55.17;;;33.58;;
76155;SDS011;64906;51.290;7.348;2023-02-28T03:38:27;52.58;;;34.40;;
76155;SDS011;64906;51.290;7.348;2023-02-28T03:41:21;55.22;;;34.15;;
76155;SDS011;64906;51.290;7.348;2023-02-28T03:43:53;53.08;;;32.60;;
76155;SDS011;64906;51.290;7.348;2023-02-28T03:46:24;51.72;;;33.35;;
76155;SDS011;64906;51.290;7.348;2023-02-28T03:48:56;48.90;;;32.15;;
76155;SDS011;64906;51.290;7.348;2023-02-28T03:51:29;50.15;;;32.53;;
76155;SDS011;64906;51.290;7.348;2023-02-28T03:53:58;51.60;;;32.97;;
76155;SDS011;64906;51.290;7.348;2023-02-28T03:56:38;53.42;;;37.35;;
76155;SDS011;64906;51.290;7.348;2023-02-28T03:59:15;53.03;;;34.25;;
76155;SDS011;64906;51.290;7.348;2023-02-28T04:01:51;52.38;;;32.15;;
76155;SDS011;64906;51.290;7.348;2023-02-28T04:04:17;51.25;;;32.88;;
76155;SDS011;64906;51.290;7.348;2023-02-28T04:06:44;51.53;;;32.15;;
76155;SDS011;64906;51.290;7.348;2023-02-28T04:09:11;51.13;;;32.78;;
76155;SDS011;64906;51.290;7.348;2023-02-28T04:11:44;48.72;;;31.92;;
76155;SDS011;64906;51.290;7.348;2023-02-28T04:14:12;49.08;;;32.08;;
76155;SDS011;64906;51.290;7.348;2023-02-28T04:16:39;53.20;;;32.20;;
76155;SDS011;64906;51.290;7.348;2023-02-28T04:19:07;47.22;;;32.08;;
76155;SDS011;64906;51.290;7.348;2023-02-28T04:21:40;53.00;;;32.17;;
76155;SDS011;64906;51.290;7.348;2023-02-28T04:24:08;45.75;;;31.63;;
76155;SDS011;64906;51.290;7.348;2023-02-28T04:26:40;49.28;;;31.02;;
76155;SDS011;64906;51.290;7.348;2023-02-28T04:29:11;49.47;;;31.10;;
76155;SDS011;64906;51.290;7.348;2023-02-28T04:31:38;51.08;;;35.92;;
76155;SDS011;64906;51.290;7.348;2023-02-28T04:34:05;48.72;;;32.13;;
76155;SDS011;64906;51.290;7.348;2023-02-28T04:36:32;48.30;;;31.85;;
76155;SDS011;64906;51.290;7.348;2023-02-28T04:38:58;44.90;;;29.23;;
76155;SDS011;64906;51.290;7.348;2023-02-28T04:41:24;46.67;;;31.25;;
76155;SDS011;64906;51.290;7.348;2023-02-28T04:43:53;51.78;;;32.15;;
76155;SDS011;64906;51.290;7.348;2023-02-28T04:46:19;46.00;;;30.58;;
76155;SDS011;64906;51.290;7.348;2023-02-28T04:48:45;49.67;;;30.73;;
76155;SDS011;64906;51.290;7.348;2023-02-28T04:51:12;48.75;;;31.75;;
76155;SDS011;64906;51.290;7.348;2023-02-28T04:53:40;45.78;;;30.75;;
76155;SDS011;64906;51.290;7.348;2023-02-28T04:56:08;48.20;;;30.75;;
76155;SDS011;64906;51.290;7.348;2023-02-28T04:58:37;44.30;;;30.38;;
76155;SDS011;64906;51.290;7.348;2023-02-28T05:01:16;48.15;;;30.40;;
76155;SDS011;64906;51.290;7.348;2023-02-28T05:03:43;46.42;;;30.08;;
76155;SDS011;64906;51.290;7.348;2023-02-28T05:06:10;49.53;;;31.33;;
76155;SDS011;64906;51.290;7.348;2023-02-28T05:08:37;49.78;;;31.15;;
76155;SDS011;64906;51.290;7.348;2023-02-28T05:11:05;50.13;;;29.60;;
76155;SDS011;64906;51.290;7.348;2023-02-28T05:13:52;43.95;;;29.75;;
76155;SDS011;64906;51.290;7.348;2023-02-28T05:16:19;49.92;;;30.38;;
76155;SDS011;64906;51.290;7.348;2023-02-28T05:18:45;48.58;;;30.13;;
76155;SDS011;64906;51.290;7.348;2023-02-28T05:23:49;44.63;;;29.73;;
76155;SDS011;64906;51.290;7.348;2023-02-28T05:26:17;43.28;;;28.85;;
76155;SDS011;64906;51.290;7.348;2023-02-28T05:28:43;43.15;;;29.00;;
76155;SDS011;64906;51.290;7.348;2023-02-28T05:31:12;45.40;;;29.48;;
76155;SDS011;64906;51.290;7.348;2023-02-28T05:33:38;44.28;;;28.67;;
76155;SDS011;64906;51.290;7.348;2023-02-28T05:36:05;45.78;;;29.17;;
76155;SDS011;64906;51.290;7.348;2023-02-28T05:38:31;46.25;;;29.17;;
76155;SDS011;64906;51.290;7.348;2023-02-28T05:40:57;44.13;;;28.92;;
76155;SDS011;64906;51.290;7.348;2023-02-28T05:43:23;46.42;;;29.63;;
76155;SDS011;64906;51.290;7.348;2023-02-28T05:45:49;50.13;;;29.08;;
76155;SDS011;64906;51.290;7.348;2023-02-28T05:48:15;44.65;;;28.48;;
76155;SDS011;64906;51.290;7.348;2023-02-28T05:50:42;41.08;;;27.88;;
76155;SDS011;64906;51.290;7.348;2023-02-28T05:53:10;41.67;;;28.15;;
76155;SDS011;64906;51.290;7.348;2023-02-28T05:55:35;46.70;;;28.67;;
76155;SDS011;64906;51.290;7.348;2023-02-28T05:58:02;43.70;;;27.45;;
76155;SDS011;64906;51.290;7.348;2023-02-28T06:00:28;44.38;;;27.17;;
76155;SDS011;64906;51.290;7.348;2023-02-28T06:02:54;43.58;;;27.92;;
76155;SDS011;64906;51.290;7.348;2023-02-28T06:05:23;46.13;;;28.30;;
76155;SDS011;64906;51.290;7.348;2023-02-28T06:07:49;42.25;;;28.02;;
76155;SDS011;64906;51.290;7.348;2023-02-28T06:10:15;43.33;;;29.38;;
76155;SDS011;64906;51.290;7.348;2023-02-28T06:12:41;45.13;;;28.00;;
76155;SDS011;64906;51.290;7.348;2023-02-28T06:15:16;44.15;;;27.92;;
76155;SDS011;64906;51.290;7.348;2023-02-28T06:17:43;44.08;;;27.63;;
76155;SDS011;64906;51.290;7.348;2023-02-28T06:20:10;45.00;;;26.83;;
76155;SDS011;64906;51.290;7.348;2023-02-28T06:22:39;46.03;;;31.73;;
76155;SDS011;64906;51.290;7.348;2023-02-28T06:25:05;43.17;;;27.05;;
76155;SDS011;64906;51.290;7.348;2023-02-28T06:27:32;44.13;;;27.65;;
76155;SDS011;64906;51.290;7.348;2023-02-28T06:29:58;42.50;;;26.85;;
76155;SDS011;64906;51.290;7.348;2023-02-28T06:32:25;39.65;;;26.67;;
76155;SDS011;64906;51.290;7.348;2023-02-28T06:34:51;42.28;;;26.90;;
76155;SDS011;64906;51.290;7.348;2023-02-28T06:37:18;41.95;;;26.83;;
76155;SDS011;64906;51.290;7.348;2023-02-28T06:39:45;44.72;;;27.40;;
76155;SDS011;64906;51.290;7.348;2023-02-28T06:42:12;40.35;;;26.15;;
76155;SDS011;64906;51.290;7.348;2023-02-28T06:44:38;39.63;;;26.10;;
76155;SDS011;64906;51.290;7.348;2023-02-28T06:47:04;40.45;;;26.70;;
76155;SDS011;64906;51.290;7.348;2023-02-28T06:49:32;44.03;;;27.20;;
76155;SDS011;64906;51.290;7.348;2023-02-28T06:51:59;43.03;;;27.02;;
76155;SDS011;64906;51.290;7.348;2023-02-28T06:54:25;47.40;;;26.20;;
76155;SDS011;64906;51.290;7.348;2023-02-28T06:56:52;39.38;;;25.35;;
76155;SDS011;64906;51.290;7.348;2023-02-28T06:59:19;42.15;;;26.60;;
76155;SDS011;64906;51.290;7.348;2023-02-28T07:01:45;38.22;;;25.73;;
76155;SDS011;64906;51.290;7.348;2023-02-28T07:04:11;39.25;;;25.13;;
76155;SDS011;64906;51.290;7.348;2023-02-28T07:06:38;37.95;;;25.52;;
76155;SDS011;64906;51.290;7.348;2023-02-28T07:09:04;37.33;;;25.75;;
76155;SDS011;64906;51.290;7.348;2023-02-28T07:11:30;36.20;;;24.90;;
76155;SDS011;64906;51.290;7.348;2023-02-28T07:13:56;40.70;;;24.85;;
76155;SDS011;64906;51.290;7.348;2023-02-28T07:16:23;37.95;;;27.23;;
76155;SDS011;64906;51.290;7.348;2023-02-28T07:18:51;37.85;;;25.70;;
76155;SDS011;64906;51.290;7.348;2023-02-28T07:21:19;38.05;;;24.30;;
76155;SDS011;64906;51.290;7.348;2023-02-28T07:23:46;38.60;;;24.65;;
76155;SDS011;64906;51.290;7.348;2023-02-28T07:26:13;38.63;;;24.55;;
76155;SDS011;64906;51.290;7.348;2023-02-28T07:28:41;37.70;;;25.10;;
76155;SDS011;64906;51.290;7.348;2023-02-28T07:31:07;38.17;;;26.10;;
76155;SDS011;64906;51.290;7.348;2023-02-28T07:33:34;35.95;;;23.85;;
76155;SDS011;64906;51.290;7.348;2023-02-28T07:36:03;38.88;;;24.23;;
76155;SDS011;64906;51.290;7.348;2023-02-28T07:38:35;36.22;;;24.80;;
76155;SDS011;64906;51.290;7.348;2023-02-28T07:41:03;36.83;;;23.92;;
76155;SDS011;64906;51.290;7.348;2023-02-28T07:43:30;37.63;;;24.23;;
76155;SDS011;64906;51.290;7.348;2023-02-28T07:46:01;37.63;;;23.92;;
76155;SDS011;64906;51.290;7.348;2023-02-28T07:48:32;35.05;;;23.73;;
76155;SDS011;64906;51.290;7.348;2023-02-28T07:50:58;38.17;;;24.77;;
76155;SDS011;64906;51.290;7.348;2023-02-28T07:53:26;35.22;;;24.23;;
76155;SDS011;64906;51.290;7.348;2023-02-28T07:55:56;35.95;;;26.08;;
76155;SDS011;64906;51.290;7.348;2023-02-28T07:58:23;35.70;;;23.92;;
76155;SDS011;64906;51.290;7.348;2023-02-28T08:00:50;36.03;;;23.50;;
76155;SDS011;64906;51.290;7.348;2023-02-28T08:03:17;33.97;;;22.42;;
76155;SDS011;64906;51.290;7.348;2023-02-28T08:05:46;36.83;;;24.42;;
76155;SDS011;64906;51.290;7.348;2023-02-28T08:08:13;40.22;;;24.50;;
76155;SDS011;64906;51.290;7.348;2023-02-28T08:10:39;34.95;;;23.88;;
76155;SDS011;64906;51.290;7.348;2023-02-28T08:13:06;37.70;;;24.02;;
76155;SDS011;64906;51.290;7.348;2023-02-28T08:15:34;34.53;;;23.77;;
76155;SDS011;64906;51.290;7.348;2023-02-28T08:18:01;33.45;;;23.45;;
76155;SDS011;64906;51.290;7.348;2023-02-28T08:20:27;35.20;;;21.85;;
76155;SDS011;64906;51.290;7.348;2023-02-28T08:22:53;35.03;;;23.65;;
76155;SDS011;64906;51.290;7.348;2023-02-28T08:25:20;35.00;;;22.45;;
76155;SDS011;64906;51.290;7.348;2023-02-28T08:27:46;35.17;;;22.77;;
76155;SDS011;64906;51.290;7.348;2023-02-28T08:30:12;36.47;;;22.27;;
76155;SDS011;64906;51.290;7.348;2023-02-28T08:32:40;34.25;;;23.08;;
76155;SDS011;64906;51.290;7.348;2023-02-28T08:35:06;36.50;;;22.98;;
76155;SDS011;64906;51.290;7.348;2023-02-28T08:37:34;34.60;;;25.25;;
76155;SDS011;64906;51.290;7.348;2023-02-28T08:40:00;32.55;;;22.67;;
76155;SDS011;64906;51.290;7.348;2023-02-28T08:42:26;34.42;;;22.25;;
76155;SDS011;64906;51.290;7.348;2023-02-28T08:44:53;33.45;;;21.95;;
76155;SDS011;64906;51.290;7.348;2023-02-28T08:47:19;32.97;;;21.92;;
76155;SDS011;64906;51.290;7.348;2023-02-28T08:49:46;36.67;;;23.27;;
76155;SDS011;64906;51.290;7.348;2023-02-28T08:52:12;35.60;;;23.48;;
76155;SDS011;64906;51.290;7.348;2023-02-28T08:54:37;32.65;;;21.80;;
76155;SDS011;64906;51.290;7.348;2023-02-28T08:57:03;36.33;;;22.60;;
76155;SDS011;64906;51.290;7.348;2023-02-28T08:59:29;34.65;;;23.02;;
76155;SDS011;64906;51.290;7.348;2023-02-28T09:01:55;31.40;;;21.63;;
76155;SDS011;64906;51.290;7.348;2023-02-28T09:04:21;32.67;;;22.13;;
76155;SDS011;64906;51.290;7.348;2023-02-28T09:06:47;30.98;;;20.67;;
76155;SDS011;64906;51.290;7.348;2023-02-28T09:09:14;32.80;;;22.38;;
76155;SDS011;64906;51.290;7.348;2023-02-28T09:11:40;32.40;;;21.73;;
76155;SDS011;64906;51.290;7.348;2023-02-28T09:14:06;35.30;;;22.33;;
76155;SDS011;64906;51.290;7.348;2023-02-28T09:16:32;35.08;;;22.08;;
76155;SDS011;64906;51.290;7.348;2023-02-28T09:18:59;32.65;;;21.25;;
76155;SDS011;64906;51.290;7.348;2023-02-28T09:21:25;30.65;;;21.33;;
76155;SDS011;64906;51.290;7.348;2023-02-28T09:23:52;32.10;;;21.38;;
76155;SDS011;64906;51.290;7.348;2023-02-28T09:26:22;36.92;;;23.63;;
76155;SDS011;64906;51.290;7.348;2023-02-28T09:31:17;31.75;;;21.08;;
76155;SDS011;64906;51.290;7.348;2023-02-28T09:33:48;33.33;;;20.45;;
76155;SDS011;64906;51.290;7.348;2023-02-28T09:36:17;31.88;;;20.45;;
76155;SDS011;64906;51.290;7.348;2023-02-28T09:38:43;32.00;;;20.55;;
76155;SDS011;64906;51.290;7.348;2023-02-28T09:41:15;29.80;;;20.58;;
76155;SDS011;64906;51.290;7.348;2023-02-28T09:43:45;32.85;;;21.65;;
76155;SDS011;64906;51.290;7.348;2023-02-28T09:48:48;31.27;;;21.67;;
76155;SDS011;64906;51.290;7.348;2023-02-28T09:53:58;33.05;;;21.77;;
76155;SDS011;64906;51.290;7.348;2023-02-28T09:56:25;33.58;;;22.98;;
76155;SDS011;64906;51.290;7.348;2023-02-28T10:02:10;36.20;;;23.45;;
76155;SDS011;64906;51.290;7.348;2023-02-28T10:04:52;37.63;;;24.85;;
76155;SDS011;64906;51.290;7.348;2023-02-28T10:10:22;45.17;;;28.58;;
76155;SDS011;64906;51.290;7.348;2023-02-28T10:12:54;46.13;;;29.05;;
76155;SDS011;64906;51.290;7.348;2023-02-28T10:15:32;52.40;;;30.98;;
76155;SDS011;64906;51.290;7.348;2023-02-28T10:18:02;53.65;;;34.17;;
76155;SDS011;64906;51.290;7.348;2023-02-28T10:20:32;56.50;;;35.08;;
76155;SDS011;64906;51.290;7.348;2023-02-28T10:25:59;57.80;;;38.60;;
76155;SDS011;64906;51.290;7.348;2023-02-28T10:28:30;63.70;;;39.95;;
76155;SDS011;64906;51.290;7.348;2023-02-28T10:30:56;67.57;;;41.88;;
76155;SDS011;64906;51.290;7.348;2023-02-28T10:33:24;63.00;;;41.35;;
76155;SDS011;64906;51.290;7.348;2023-02-28T10:35:54;66.15;;;43.53;;
76155;SDS011;64906;51.290;7.348;2023-02-28T10:38:22;69.60;;;42.65;;
76155;SDS011;64906;51.290;7.348;2023-02-28T10:40:50;67.40;;;43.38;;
76155;SDS011;64906;51.290;7.348;2023-02-28T10:45:52;71.97;;;48.30;;
76155;SDS011;64906;51.290;7.348;2023-02-28T10:55:40;73.25;;;47.33;;
76155;SDS011;64906;51.290;7.348;2023-02-28T10:58:22;76.05;;;51.17;;
76155;SDS011;64906;51.290;7.348;2023-02-28T11:00:50;74.15;;;46.50;;
76155;SDS011;64906;51.290;7.348;2023-02-28T11:03:31;74.85;;;47.00;;
76155;SDS011;64906;51.290;7.348;2023-02-28T11:06:03;68.53;;;45.70;;
76155;SDS011;64906;51.290;7.348;2023-02-28T11:08:48;74.45;;;48.47;;
76155;SDS011;64906;51.290;7.348;2023-02-28T11:11:14;73.75;;;47.08;;
76155;SDS011;64906;51.290;7.348;2023-02-28T11:13:42;70.00;;;45.90;;
76155;SDS011;64906;51.290;7.348;2023-02-28T11:16:11;78.88;;;47.90;;
76155;SDS011;64906;51.290;7.348;2023-02-28T11:18:40;74.97;;;48.88;;
76155;SDS011;64906;51.290;7.348;2023-02-28T11:21:28;77.18;;;49.38;;
76155;SDS011;64906;51.290;7.348;2023-02-28T11:24:18;69.38;;;46.95;;
76155;SDS011;64906;51.290;7.348;2023-02-28T11:26:49;79.95;;;50.35;;
76155;SDS011;64906;51.290;7.348;2023-02-28T11:29:17;71.95;;;47.92;;
76155;SDS011;64906;51.290;7.348;2023-02-28T11:32:28;78.82;;;51.22;;
76155;SDS011;64906;51.290;7.348;2023-02-28T11:34:41;78.70;;;49.47;;
76155;SDS011;64906;51.290;7.348;2023-02-28T11:37:12;77.10;;;48.00;;
76155;SDS011;64906;51.290;7.348;2023-02-28T11:39:43;74.95;;;47.90;;
76155;SDS011;64906;51.290;7.348;2023-02-28T11:45:15;72.53;;;46.85;;
76155;SDS011;64906;51.290;7.348;2023-02-28T11:56:24;70.60;;;46.55;;
76155;SDS011;64906;51.290;7.348;2023-02-28T11:59:09;72.22;;;46.80;;
76155;SDS011;64906;51.290;7.348;2023-02-28T12:02:05;68.85;;;46.20;;
76155;SDS011;64906;51.290;7.348;2023-02-28T12:10:29;70.72;;;45.95;;
76155;SDS011;64906;51.290;7.348;2023-02-28T12:21:54;73.30;;;47.75;;
76155;SDS011;64906;51.290;7.348;2023-02-28T12:27:25;75.82;;;48.55;;
76155;SDS011;64906;51.290;7.348;2023-02-28T12:33:01;122.30;;;80.45;;
76155;SDS011;64906;51.290;7.348;2023-02-28T12:35:47;118.20;;;76.45;;
76155;SDS011;64906;51.290;7.348;2023-02-28T12:38:17;99.78;;;68.43;;
76155;SDS011;64906;51.290;7.348;2023-02-28T12:40:50;100.88;;;64.97;;
76155;SDS011;64906;51.290;7.348;2023-02-28T12:43:44;90.93;;;58.92;;
76155;SDS011;64906;51.290;7.348;2023-02-28T12:46:17;107.13;;;68.85;;
76155;SDS011;64906;51.290;7.348;2023-02-28T12:48:50;86.88;;;55.03;;
76155;SDS011;64906;51.290;7.348;2023-02-28T12:51:22;82.03;;;50.22;;
76155;SDS011;64906;51.290;7.348;2023-02-28T12:59:32;67.90;;;39.63;;
76155;SDS011;64906;51.290;7.348;2023-02-28T13:10:48;54.97;;;34.67;;
76155;SDS011;64906;51.290;7.348;2023-02-28T13:13:20;56.35;;;34.03;;
76155;SDS011;64906;51.290;7.348;2023-02-28T13:18:42;50.10;;;29.00;;
76155;SDS011;64906;51.290;7.348;2023-02-28T13:21:28;59.17;;;27.65;;
76155;SDS011;64906;51.290;7.348;2023-02-28T13:23:56;44.55;;;25.95;;
76155;SDS011;64906;51.290;7.348;2023-02-28T13:28:58;39.75;;;22.70;;
76155;SDS011;64906;51.290;7.348;2023-02-28T13:31:24;33.88;;;22.17;;
76155;SDS011;64906;51.290;7.348;2023-02-28T13:44:00;29.02;;;14.48;;
76155;SDS011;64906;51.290;7.348;2023-02-28T13:54:50;32.08;;;12.13;;
76155;SDS011;64906;51.290;7.348;2023-02-28T14:11:25;44.22;;;22.77;;
76155;SDS011;64906;51.290;7.348;2023-02-28T14:13:53;39.67;;;20.58;;
76155;SDS011;64906;51.290;7.348;2023-02-28T14:16:26;34.50;;;18.48;;
76155;SDS011;64906;51.290;7.348;2023-02-28T14:19:01;32.63;;;15.80;;
76155;SDS011;64906;51.290;7.348;2023-02-28T14:30:37;35.95;;;16.40;;
76155;SDS011;64906;51.290;7.348;2023-02-28T14:41:16;42.72;;;18.33;;
76155;SDS011;64906;51.290;7.348;2023-02-28T14:43:49;40.00;;;17.52;;
76155;SDS011;64906;51.290;7.348;2023-02-28T14:46:19;40.22;;;18.30;;
76155;SDS011;64906;51.290;7.348;2023-02-28T14:48:48;38.90;;;19.25;;
76155;SDS011;64906;51.290;7.348;2023-02-28T14:51:22;38.13;;;18.23;;
76155;SDS011;64906;51.290;7.348;2023-02-28T14:53:52;40.80;;;17.45;;
76155;SDS011;64906;51.290;7.348;2023-02-28T14:56:23;36.08;;;16.15;;
76155;SDS011;64906;51.290;7.348;2023-02-28T14:58:54;38.65;;;17.52;;
76155;SDS011;64906;51.290;7.348;2023-02-28T15:01:22;48.83;;;16.58;;
76155;SDS011;64906;51.290;7.348;2023-02-28T15:03:57;39.97;;;16.67;;
76155;SDS011;64906;51.290;7.348;2023-02-28T15:06:24;46.20;;;18.55;;
76155;SDS011;64906;51.290;7.348;2023-02-28T15:09:09;53.00;;;17.42;;
76155;SDS011;64906;51.290;7.348;2023-02-28T15:11:45;42.85;;;16.90;;
76155;SDS011;64906;51.290;7.348;2023-02-28T15:14:15;42.92;;;17.02;;
76155;SDS011;64906;51.290;7.348;2023-02-28T15:16:44;51.05;;;17.55;;
76155;SDS011;64906;51.290;7.348;2023-02-28T15:19:18;45.85;;;17.92;;
76155;SDS011;64906;51.290;7.348;2023-02-28T15:21:55;37.22;;;15.65;;
76155;SDS011;64906;51.290;7.348;2023-02-28T15:24:35;46.15;;;15.73;;
76155;SDS011;64906;51.290;7.348;2023-02-28T15:27:07;38.63;;;16.17;;
76155;SDS011;64906;51.290;7.348;2023-02-28T15:29:46;46.38;;;18.48;;
76155;SDS011;64906;51.290;7.348;2023-02-28T15:35:34;50.50;;;18.48;;
76155;SDS011;64906;51.290;7.348;2023-02-28T15:38:01;48.10;;;20.58;;
76155;SDS011;64906;51.290;7.348;2023-02-28T15:40:32;48.50;;;21.08;;
76155;SDS011;64906;51.290;7.348;2023-02-28T15:45:52;54.05;;;22.70;;
76155;SDS011;64906;51.290;7.348;2023-02-28T15:51:23;54.03;;;24.17;;
76155;SDS011;64906;51.290;7.348;2023-02-28T15:53:56;53.33;;;24.77;;
76155;SDS011;64906;51.290;7.348;2023-02-28T15:56:26;59.25;;;25.58;;
76155;SDS011;64906;51.290;7.348;2023-02-28T15:58:58;56.15;;;26.00;;
76155;SDS011;64906;51.290;7.348;2023-02-28T16:01:31;56.53;;;25.92;;
76155;SDS011;64906;51.290;7.348;2023-02-28T16:04:15;63.88;;;28.05;;
76155;SDS011;64906;51.290;7.348;2023-02-28T16:06:43;60.00;;;27.02;;
76155;SDS011;64906;51.290;7.348;2023-02-28T16:09:26;64.40;;;27.67;;
76155;SDS011;64906;51.290;7.348;2023-02-28T16:11:55;59.97;;;27.83;;
76155;SDS011;64906;51.290;7.348;2023-02-28T16:14:23;60.10;;;27.30;;
76155;SDS011;64906;51.290;7.348;2023-02-28T16:16:56;54.33;;;27.52;;
76155;SDS011;64906;51.290;7.348;2023-02-28T16:19:27;60.20;;;29.02;;
76155;SDS011;64906;51.290;7.348;2023-02-28T16:21:54;63.28;;;30.33;;
76155;SDS011;64906;51.290;7.348;2023-02-28T16:24:20;59.60;;;28.48;;
76155;SDS011;64906;51.290;7.348;2023-02-28T16:26:47;55.90;;;28.38;;
76155;SDS011;64906;51.290;7.348;2023-02-28T16:29:24;56.80;;;27.45;;
76155;SDS011;64906;51.290;7.348;2023-02-28T16:31:55;63.33;;;27.30;;
76155;SDS011;64906;51.290;7.348;2023-02-28T16:34:21;56.45;;;26.63;;
76155;SDS011;64906;51.290;7.348;2023-02-28T16:36:48;56.75;;;27.42;;
76155;SDS011;64906;51.290;7.348;2023-02-28T16:39:15;58.75;;;26.92;;
76155;SDS011;64906;51.290;7.348;2023-02-28T16:41:44;61.88;;;28.50;;
76155;SDS011;64906;51.290;7.348;2023-02-28T16:44:17;58.47;;;26.98;;
76155;SDS011;64906;51.290;7.348;2023-02-28T16:46:46;57.97;;;28.35;;
76155;SDS011;64906;51.290;7.348;2023-02-28T16:49:12;61.70;;;25.98;;
76155;SDS011;64906;51.290;7.348;2023-02-28T16:51:38;58.80;;;26.50;;
76155;SDS011;64906;51.290;7.348;2023-02-28T16:54:04;56.20;;;25.65;;
76155;SDS011;64906;51.290;7.348;2023-02-28T16:56:30;54.00;;;24.60;;
76155;SDS011;64906;51.290;7.348;2023-02-28T16:58:58;44.83;;;22.98;;
76155;SDS011;64906;51.290;7.348;2023-02-28T17:01:27;47.33;;;22.83;;
76155;SDS011;64906;51.290;7.348;2023-02-28T17:03:53;45.97;;;22.10;;
76155;SDS011;64906;51.290;7.348;2023-02-28T17:06:22;44.60;;;20.05;;
76155;SDS011;64906;51.290;7.348;2023-02-28T17:08:50;40.25;;;19.30;;
76155;SDS011;64906;51.290;7.348;2023-02-28T17:11:17;50.15;;;20.80;;
76155;SDS011;64906;51.290;7.348;2023-02-28T17:13:44;46.28;;;19.08;;
76155;SDS011;64906;51.290;7.348;2023-02-28T17:16:15;37.78;;;18.80;;
76155;SDS011;64906;51.290;7.348;2023-02-28T17:21:22;39.72;;;17.33;;
76155;SDS011;64906;51.290;7.348;2023-02-28T17:23:47;45.22;;;18.00;;
76155;SDS011;64906;51.290;7.348;2023-02-28T17:26:15;42.92;;;17.58;;
76155;SDS011;64906;51.290;7.348;2023-02-28T17:28:45;41.17;;;18.27;;
76155;SDS011;64906;51.290;7.348;2023-02-28T17:31:14;45.10;;;18.08;;